sensor_id;sensor_type;location;lat;lon;timestamp;P1;durP1;ratioP1;P2;durP2;ratioP2
28431;SDS011;15664;51.302;7.744;2023-03-23T00:00:53;5.93;;;2.20;;
28431;SDS011;15664;51.302;7.744;2023-03-23T00:03:20;7.70;;;2.70;;
28431;SDS011;15664;51.302;7.744;2023-03-23T00:05:46;5.60;;;2.67;;
28431;SDS011;15664;51.302;7.744;2023-03-23T00:08:19;8.40;;;2.47;;
28431;SDS011;15664;51.302;7.744;2023-03-23T00:10:49;7.03;;;2.58;;
28431;SDS011;15664;51.302;7.744;2023-03-23T00:13:25;8.32;;;2.80;;
28431;SDS011;15664;51.302;7.744;2023-03-23T00:15:51;8.18;;;2.67;;
28431;SDS011;15664;51.302;7.744;2023-03-23T00:18:21;6.53;;;2.88;;
28431;SDS011;15664;51.302;7.744;2023-03-23T00:20:50;8.10;;;3.10;;
28431;SDS011;15664;51.302;7.744;2023-03-23T00:23:21;6.22;;;2.88;;
28431;SDS011;15664;51.302;7.744;2023-03-23T00:25:49;6.90;;;3.30;;
28431;SDS011;15664;51.302;7.744;2023-03-23T00:28:18;7.35;;;2.75;;
28431;SDS011;15664;51.302;7.744;2023-03-23T00:30:58;8.90;;;3.45;;
28431;SDS011;15664;51.302;7.744;2023-03-23T00:33:26;8.20;;;2.53;;
28431;SDS011;15664;51.302;7.744;2023-03-23T00:35:54;6.97;;;3.10;;
28431;SDS011;15664;51.302;7.744;2023-03-23T00:38:23;6.80;;;3.53;;
28431;SDS011;15664;51.302;7.744;2023-03-23T00:40:52;11.88;;;3.30;;
28431;SDS011;15664;51.302;7.744;2023-03-23T00:43:20;7.03;;;2.83;;
28431;SDS011;15664;51.302;7.744;2023-03-23T00:45:49;6.63;;;2.83;;
28431;SDS011;15664;51.302;7.744;2023-03-23T00:48:17;9.05;;;3.22;;
28431;SDS011;15664;51.302;7.744;2023-03-23T00:50:43;7.88;;;3.10;;
28431;SDS011;15664;51.302;7.744;2023-03-23T00:53:09;7.13;;;2.50;;
28431;SDS011;15664;51.302;7.744;2023-03-23T00:55:35;6.65;;;2.97;;
28431;SDS011;15664;51.302;7.744;2023-03-23T00:58:00;8.57;;;3.33;;
28431;SDS011;15664;51.302;7.744;2023-03-23T01:00:26;6.47;;;2.50;;
28431;SDS011;15664;51.302;7.744;2023-03-23T01:02:52;10.05;;;2.85;;
28431;SDS011;15664;51.302;7.744;2023-03-23T01:05:18;7.38;;;2.83;;
28431;SDS011;15664;51.302;7.744;2023-03-23T01:07:44;6.03;;;2.53;;
28431;SDS011;15664;51.302;7.744;2023-03-23T01:10:11;6.27;;;2.63;;
28431;SDS011;15664;51.302;7.744;2023-03-23T01:12:42;8.15;;;2.90;;
28431;SDS011;15664;51.302;7.744;2023-03-23T01:15:12;6.10;;;2.35;;
28431;SDS011;15664;51.302;7.744;2023-03-23T01:17:40;6.10;;;2.25;;
28431;SDS011;15664;51.302;7.744;2023-03-23T01:20:06;8.82;;;2.60;;
28431;SDS011;15664;51.302;7.744;2023-03-23T01:22:32;6.70;;;2.50;;
28431;SDS011;15664;51.302;7.744;2023-03-23T01:24:58;5.85;;;2.40;;
28431;SDS011;15664;51.302;7.744;2023-03-23T01:27:23;6.93;;;2.10;;
28431;SDS011;15664;51.302;7.744;2023-03-23T01:29:49;7.57;;;2.40;;
28431;SDS011;15664;51.302;7.744;2023-03-23T01:32:15;5.40;;;1.98;;
28431;SDS011;15664;51.302;7.744;2023-03-23T01:34:41;4.83;;;2.17;;
28431;SDS011;15664;51.302;7.744;2023-03-23T01:37:07;6.72;;;2.40;;
28431;SDS011;15664;51.302;7.744;2023-03-23T01:39:32;6.37;;;2.20;;
28431;SDS011;15664;51.302;7.744;2023-03-23T01:41:58;5.83;;;1.83;;
28431;SDS011;15664;51.302;7.744;2023-03-23T01:46:58;4.15;;;2.10;;
28431;SDS011;15664;51.302;7.744;2023-03-23T01:49:26;4.43;;;1.98;;
28431;SDS011;15664;51.302;7.744;2023-03-23T01:54:44;6.37;;;2.53;;
28431;SDS011;15664;51.302;7.744;2023-03-23T01:57:13;5.35;;;1.75;;
28431;SDS011;15664;51.302;7.744;2023-03-23T01:59:43;6.03;;;2.22;;
28431;SDS011;15664;51.302;7.744;2023-03-23T02:02:22;7.43;;;2.42;;
28431;SDS011;15664;51.302;7.744;2023-03-23T02:04:50;5.53;;;2.13;;
28431;SDS011;15664;51.302;7.744;2023-03-23T02:07:19;6.50;;;2.57;;
28431;SDS011;15664;51.302;7.744;2023-03-23T02:09:47;5.53;;;1.92;;
28431;SDS011;15664;51.302;7.744;2023-03-23T02:12:15;4.32;;;1.73;;
28431;SDS011;15664;51.302;7.744;2023-03-23T02:14:41;5.93;;;2.10;;
28431;SDS011;15664;51.302;7.744;2023-03-23T02:17:12;7.10;;;2.55;;
28431;SDS011;15664;51.302;7.744;2023-03-23T02:20:01;6.60;;;2.45;;
28431;SDS011;15664;51.302;7.744;2023-03-23T02:23:13;5.40;;;2.35;;
28431;SDS011;15664;51.302;7.744;2023-03-23T02:31:57;5.53;;;2.70;;
28431;SDS011;15664;51.302;7.744;2023-03-23T02:34:35;4.65;;;2.05;;
28431;SDS011;15664;51.302;7.744;2023-03-23T02:40:18;6.80;;;2.80;;
28431;SDS011;15664;51.302;7.744;2023-03-23T02:42:48;6.18;;;2.60;;
28431;SDS011;15664;51.302;7.744;2023-03-23T02:45:17;7.10;;;2.63;;
28431;SDS011;15664;51.302;7.744;2023-03-23T02:47:47;5.03;;;2.08;;
28431;SDS011;15664;51.302;7.744;2023-03-23T02:50:17;7.22;;;2.65;;
28431;SDS011;15664;51.302;7.744;2023-03-23T02:52:45;7.22;;;2.65;;
28431;SDS011;15664;51.302;7.744;2023-03-23T02:55:13;6.78;;;2.92;;
28431;SDS011;15664;51.302;7.744;2023-03-23T02:57:41;6.50;;;2.73;;
28431;SDS011;15664;51.302;7.744;2023-03-23T03:00:11;3.70;;;1.80;;
28431;SDS011;15664;51.302;7.744;2023-03-23T03:02:39;7.63;;;2.85;;
28431;SDS011;15664;51.302;7.744;2023-03-23T03:10:31;8.70;;;3.07;;
28431;SDS011;15664;51.302;7.744;2023-03-23T03:21:09;6.67;;;2.50;;
28431;SDS011;15664;51.302;7.744;2023-03-23T03:23:42;5.15;;;2.42;;
28431;SDS011;15664;51.302;7.744;2023-03-23T03:26:10;6.88;;;2.50;;
28431;SDS011;15664;51.302;7.744;2023-03-23T03:28:47;5.68;;;2.33;;
28431;SDS011;15664;51.302;7.744;2023-03-23T03:31:17;5.50;;;2.43;;
28431;SDS011;15664;51.302;7.744;2023-03-23T03:33:45;8.23;;;3.17;;
28431;SDS011;15664;51.302;7.744;2023-03-23T03:36:16;5.47;;;2.13;;
28431;SDS011;15664;51.302;7.744;2023-03-23T03:38:48;7.78;;;2.75;;
28431;SDS011;15664;51.302;7.744;2023-03-23T03:41:16;6.95;;;2.55;;
28431;SDS011;15664;51.302;7.744;2023-03-23T03:43:44;7.60;;;3.00;;
28431;SDS011;15664;51.302;7.744;2023-03-23T03:46:10;5.90;;;2.80;;
28431;SDS011;15664;51.302;7.744;2023-03-23T03:48:37;6.22;;;2.75;;
28431;SDS011;15664;51.302;7.744;2023-03-23T03:51:03;6.17;;;2.40;;
28431;SDS011;15664;51.302;7.744;2023-03-23T03:53:32;4.68;;;1.90;;
28431;SDS011;15664;51.302;7.744;2023-03-23T03:55:58;5.97;;;2.42;;
28431;SDS011;15664;51.302;7.744;2023-03-23T03:58:27;5.32;;;2.50;;
28431;SDS011;15664;51.302;7.744;2023-03-23T04:01:05;6.85;;;2.42;;
28431;SDS011;15664;51.302;7.744;2023-03-23T04:03:35;7.10;;;2.40;;
28431;SDS011;15664;51.302;7.744;2023-03-23T04:06:24;6.18;;;2.55;;
28431;SDS011;15664;51.302;7.744;2023-03-23T04:08:54;6.20;;;2.70;;
28431;SDS011;15664;51.302;7.744;2023-03-23T04:11:21;6.60;;;2.22;;
28431;SDS011;15664;51.302;7.744;2023-03-23T04:13:47;6.15;;;2.58;;
28431;SDS011;15664;51.302;7.744;2023-03-23T04:16:24;5.57;;;2.37;;
28431;SDS011;15664;51.302;7.744;2023-03-23T04:18:53;6.80;;;2.40;;
28431;SDS011;15664;51.302;7.744;2023-03-23T04:21:23;8.43;;;2.35;;
28431;SDS011;15664;51.302;7.744;2023-03-23T04:23:51;7.22;;;2.47;;
28431;SDS011;15664;51.302;7.744;2023-03-23T04:26:19;5.40;;;2.30;;
28431;SDS011;15664;51.302;7.744;2023-03-23T04:28:48;6.43;;;2.10;;
28431;SDS011;15664;51.302;7.744;2023-03-23T04:31:34;5.47;;;2.15;;
28431;SDS011;15664;51.302;7.744;2023-03-23T04:34:10;7.32;;;2.45;;
28431;SDS011;15664;51.302;7.744;2023-03-23T04:36:44;8.07;;;2.40;;
28431;SDS011;15664;51.302;7.744;2023-03-23T04:39:16;6.13;;;2.22;;
28431;SDS011;15664;51.302;7.744;2023-03-23T04:41:43;6.47;;;2.30;;
28431;SDS011;15664;51.302;7.744;2023-03-23T04:44:22;6.07;;;2.58;;
28431;SDS011;15664;51.302;7.744;2023-03-23T04:47:03;5.63;;;2.30;;
28431;SDS011;15664;51.302;7.744;2023-03-23T04:49:33;5.90;;;2.53;;
28431;SDS011;15664;51.302;7.744;2023-03-23T04:52:11;6.55;;;2.65;;
28431;SDS011;15664;51.302;7.744;2023-03-23T04:54:54;5.70;;;2.50;;
28431;SDS011;15664;51.302;7.744;2023-03-23T04:57:21;5.38;;;2.05;;
28431;SDS011;15664;51.302;7.744;2023-03-23T05:00:08;5.43;;;2.67;;
28431;SDS011;15664;51.302;7.744;2023-03-23T05:02:39;6.50;;;2.33;;
28431;SDS011;15664;51.302;7.744;2023-03-23T05:05:06;6.22;;;2.15;;
28431;SDS011;15664;51.302;7.744;2023-03-23T05:07:32;4.80;;;2.23;;
28431;SDS011;15664;51.302;7.744;2023-03-23T05:09:58;5.60;;;2.33;;
28431;SDS011;15664;51.302;7.744;2023-03-23T05:12:28;5.22;;;2.10;;
28431;SDS011;15664;51.302;7.744;2023-03-23T05:14:58;6.20;;;2.20;;
28431;SDS011;15664;51.302;7.744;2023-03-23T05:17:26;6.22;;;2.80;;
28431;SDS011;15664;51.302;7.744;2023-03-23T05:19:55;5.78;;;2.45;;
28431;SDS011;15664;51.302;7.744;2023-03-23T05:22:35;6.05;;;2.40;;
28431;SDS011;15664;51.302;7.744;2023-03-23T05:25:04;4.82;;;2.10;;
28431;SDS011;15664;51.302;7.744;2023-03-23T05:27:34;4.43;;;2.27;;
28431;SDS011;15664;51.302;7.744;2023-03-23T05:30:09;4.63;;;2.25;;
28431;SDS011;15664;51.302;7.744;2023-03-23T05:32:38;5.40;;;2.83;;
28431;SDS011;15664;51.302;7.744;2023-03-23T05:35:20;5.00;;;2.20;;
28431;SDS011;15664;51.302;7.744;2023-03-23T05:37:47;6.57;;;2.75;;
28431;SDS011;15664;51.302;7.744;2023-03-23T05:40:12;6.87;;;2.50;;
28431;SDS011;15664;51.302;7.744;2023-03-23T05:42:44;5.73;;;2.43;;
28431;SDS011;15664;51.302;7.744;2023-03-23T05:45:15;6.13;;;2.00;;
28431;SDS011;15664;51.302;7.744;2023-03-23T05:47:41;6.30;;;2.42;;
28431;SDS011;15664;51.302;7.744;2023-03-23T05:50:12;7.07;;;2.55;;
28431;SDS011;15664;51.302;7.744;2023-03-23T05:52:39;5.38;;;2.20;;
28431;SDS011;15664;51.302;7.744;2023-03-23T05:55:08;6.63;;;2.63;;
28431;SDS011;15664;51.302;7.744;2023-03-23T05:57:36;6.13;;;2.45;;
28431;SDS011;15664;51.302;7.744;2023-03-23T06:00:06;5.30;;;2.60;;
28431;SDS011;15664;51.302;7.744;2023-03-23T06:02:49;5.85;;;2.55;;
28431;SDS011;15664;51.302;7.744;2023-03-23T06:05:26;5.63;;;2.30;;
28431;SDS011;15664;51.302;7.744;2023-03-23T06:07:54;6.73;;;2.93;;
28431;SDS011;15664;51.302;7.744;2023-03-23T06:10:20;6.15;;;2.40;;
28431;SDS011;15664;51.302;7.744;2023-03-23T06:12:53;6.40;;;2.83;;
28431;SDS011;15664;51.302;7.744;2023-03-23T06:15:32;6.43;;;2.63;;
28431;SDS011;15664;51.302;7.744;2023-03-23T06:17:58;5.50;;;2.40;;
28431;SDS011;15664;51.302;7.744;2023-03-23T06:20:29;6.32;;;2.50;;
28431;SDS011;15664;51.302;7.744;2023-03-23T06:22:58;6.03;;;2.58;;
28431;SDS011;15664;51.302;7.744;2023-03-23T06:25:27;6.68;;;1.95;;
28431;SDS011;15664;51.302;7.744;2023-03-23T06:27:53;5.78;;;2.55;;
28431;SDS011;15664;51.302;7.744;2023-03-23T06:30:20;6.03;;;2.60;;
28431;SDS011;15664;51.302;7.744;2023-03-23T06:32:46;5.00;;;2.40;;
28431;SDS011;15664;51.302;7.744;2023-03-23T06:35:13;6.22;;;2.50;;
28431;SDS011;15664;51.302;7.744;2023-03-23T06:38:05;4.70;;;2.23;;
28431;SDS011;15664;51.302;7.744;2023-03-23T06:40:37;5.90;;;2.60;;
28431;SDS011;15664;51.302;7.744;2023-03-23T06:43:03;6.25;;;2.70;;
28431;SDS011;15664;51.302;7.744;2023-03-23T06:45:47;5.88;;;2.20;;
28431;SDS011;15664;51.302;7.744;2023-03-23T06:48:34;7.63;;;2.45;;
28431;SDS011;15664;51.302;7.744;2023-03-23T06:51:00;6.53;;;2.63;;
28431;SDS011;15664;51.302;7.744;2023-03-23T06:53:27;6.78;;;2.60;;
28431;SDS011;15664;51.302;7.744;2023-03-23T06:55:54;6.35;;;2.50;;
28431;SDS011;15664;51.302;7.744;2023-03-23T06:58:20;5.90;;;2.22;;
28431;SDS011;15664;51.302;7.744;2023-03-23T07:00:47;5.53;;;2.22;;
28431;SDS011;15664;51.302;7.744;2023-03-23T07:03:14;7.03;;;2.90;;
28431;SDS011;15664;51.302;7.744;2023-03-23T07:05:40;6.13;;;2.15;;
28431;SDS011;15664;51.302;7.744;2023-03-23T07:08:07;5.13;;;2.38;;
28431;SDS011;15664;51.302;7.744;2023-03-23T07:10:39;7.93;;;2.60;;
28431;SDS011;15664;51.302;7.744;2023-03-23T07:13:05;5.13;;;2.08;;
28431;SDS011;15664;51.302;7.744;2023-03-23T07:15:42;4.88;;;2.25;;
28431;SDS011;15664;51.302;7.744;2023-03-23T07:18:07;6.43;;;2.57;;
28431;SDS011;15664;51.302;7.744;2023-03-23T07:20:39;5.90;;;2.15;;
28431;SDS011;15664;51.302;7.744;2023-03-23T07:23:04;5.20;;;2.10;;
28431;SDS011;15664;51.302;7.744;2023-03-23T07:25:52;4.68;;;1.83;;
28431;SDS011;15664;51.302;7.744;2023-03-23T07:28:24;4.72;;;2.10;;
28431;SDS011;15664;51.302;7.744;2023-03-23T07:30:52;5.80;;;2.30;;
28431;SDS011;15664;51.302;7.744;2023-03-23T07:33:19;5.57;;;2.00;;
28431;SDS011;15664;51.302;7.744;2023-03-23T07:35:45;8.18;;;2.10;;
28431;SDS011;15664;51.302;7.744;2023-03-23T07:38:15;5.95;;;1.90;;
28431;SDS011;15664;51.302;7.744;2023-03-23T07:40:45;5.47;;;2.13;;
28431;SDS011;15664;51.302;7.744;2023-03-23T07:43:14;7.93;;;2.27;;
28431;SDS011;15664;51.302;7.744;2023-03-23T07:46:06;7.40;;;2.33;;
28431;SDS011;15664;51.302;7.744;2023-03-23T07:48:49;3.75;;;1.67;;
28431;SDS011;15664;51.302;7.744;2023-03-23T07:51:16;5.00;;;2.00;;
28431;SDS011;15664;51.302;7.744;2023-03-23T07:53:45;4.72;;;1.92;;
28431;SDS011;15664;51.302;7.744;2023-03-23T07:56:30;5.80;;;2.30;;
28431;SDS011;15664;51.302;7.744;2023-03-23T07:59:19;5.30;;;1.98;;
28431;SDS011;15664;51.302;7.744;2023-03-23T08:01:45;3.25;;;1.90;;
28431;SDS011;15664;51.302;7.744;2023-03-23T08:04:33;7.30;;;2.03;;
28431;SDS011;15664;51.302;7.744;2023-03-23T08:07:26;4.05;;;1.63;;
28431;SDS011;15664;51.302;7.744;2023-03-23T08:10:01;4.40;;;1.97;;
28431;SDS011;15664;51.302;7.744;2023-03-23T08:12:26;4.57;;;1.80;;
28431;SDS011;15664;51.302;7.744;2023-03-23T08:15:13;5.28;;;2.03;;
28431;SDS011;15664;51.302;7.744;2023-03-23T08:17:45;4.77;;;2.00;;
28431;SDS011;15664;51.302;7.744;2023-03-23T08:20:45;5.68;;;1.92;;
28431;SDS011;15664;51.302;7.744;2023-03-23T08:23:22;4.28;;;1.80;;
28431;SDS011;15664;51.302;7.744;2023-03-23T08:26:06;5.20;;;1.77;;
28431;SDS011;15664;51.302;7.744;2023-03-23T08:28:51;4.53;;;2.00;;
28431;SDS011;15664;51.302;7.744;2023-03-23T08:31:20;5.67;;;2.10;;
28431;SDS011;15664;51.302;7.744;2023-03-23T08:33:51;4.80;;;1.80;;
28431;SDS011;15664;51.302;7.744;2023-03-23T08:36:30;7.32;;;2.22;;
28431;SDS011;15664;51.302;7.744;2023-03-23T08:39:13;5.05;;;2.10;;
28431;SDS011;15664;51.302;7.744;2023-03-23T08:41:57;2.22;;;1.13;;
28431;SDS011;15664;51.302;7.744;2023-03-23T08:44:46;4.63;;;1.70;;
28431;SDS011;15664;51.302;7.744;2023-03-23T08:47:35;3.92;;;2.13;;
28431;SDS011;15664;51.302;7.744;2023-03-23T08:50:31;3.60;;;1.77;;
28431;SDS011;15664;51.302;7.744;2023-03-23T08:53:12;4.78;;;2.00;;
28431;SDS011;15664;51.302;7.744;2023-03-23T08:55:47;5.22;;;1.85;;
28431;SDS011;15664;51.302;7.744;2023-03-23T08:58:24;6.87;;;1.83;;
28431;SDS011;15664;51.302;7.744;2023-03-23T09:01:14;3.97;;;1.80;;
28431;SDS011;15664;51.302;7.744;2023-03-23T09:03:42;4.43;;;1.60;;
28431;SDS011;15664;51.302;7.744;2023-03-23T09:06:44;5.55;;;1.88;;
28431;SDS011;15664;51.302;7.744;2023-03-23T09:09:11;4.63;;;1.27;;
28431;SDS011;15664;51.302;7.744;2023-03-23T09:11:37;4.97;;;1.50;;
28431;SDS011;15664;51.302;7.744;2023-03-23T09:14:04;5.72;;;2.03;;
28431;SDS011;15664;51.302;7.744;2023-03-23T09:16:30;4.22;;;2.00;;
28431;SDS011;15664;51.302;7.744;2023-03-23T09:18:58;4.88;;;1.88;;
28431;SDS011;15664;51.302;7.744;2023-03-23T09:21:24;5.25;;;2.05;;
28431;SDS011;15664;51.302;7.744;2023-03-23T09:23:50;4.83;;;2.50;;
28431;SDS011;15664;51.302;7.744;2023-03-23T09:26:17;4.45;;;1.55;;
28431;SDS011;15664;51.302;7.744;2023-03-23T09:28:43;5.75;;;1.80;;
28431;SDS011;15664;51.302;7.744;2023-03-23T09:31:09;6.20;;;1.80;;
28431;SDS011;15664;51.302;7.744;2023-03-23T09:33:36;8.73;;;1.75;;
28431;SDS011;15664;51.302;7.744;2023-03-23T09:36:02;3.73;;;1.60;;
28431;SDS011;15664;51.302;7.744;2023-03-23T09:38:33;4.32;;;1.88;;
28431;SDS011;15664;51.302;7.744;2023-03-23T09:46:48;4.63;;;1.80;;
28431;SDS011;15664;51.302;7.744;2023-03-23T09:52:16;3.92;;;1.55;;
28431;SDS011;15664;51.302;7.744;2023-03-23T09:54:44;6.85;;;1.83;;
28431;SDS011;15664;51.302;7.744;2023-03-23T09:57:24;5.32;;;1.60;;
28431;SDS011;15664;51.302;7.744;2023-03-23T10:00:01;6.50;;;1.90;;
28431;SDS011;15664;51.302;7.744;2023-03-23T10:02:43;7.20;;;2.10;;
28431;SDS011;15664;51.302;7.744;2023-03-23T10:05:24;4.90;;;1.52;;
28431;SDS011;15664;51.302;7.744;2023-03-23T10:07:54;7.00;;;2.38;;
28431;SDS011;15664;51.302;7.744;2023-03-23T10:10:19;3.30;;;1.38;;
28431;SDS011;15664;51.302;7.744;2023-03-23T10:13:02;6.93;;;2.23;;
28431;SDS011;15664;51.302;7.744;2023-03-23T10:15:36;6.63;;;2.17;;
28431;SDS011;15664;51.302;7.744;2023-03-23T10:18:15;5.30;;;1.90;;
28431;SDS011;15664;51.302;7.744;2023-03-23T10:25:46;6.30;;;1.90;;
28431;SDS011;15664;51.302;7.744;2023-03-23T10:28:17;5.20;;;1.60;;
28431;SDS011;15664;51.302;7.744;2023-03-23T10:30:51;6.07;;;1.95;;
28431;SDS011;15664;51.302;7.744;2023-03-23T10:33:23;3.38;;;1.67;;
28431;SDS011;15664;51.302;7.744;2023-03-23T10:35:57;4.03;;;1.40;;
28431;SDS011;15664;51.302;7.744;2023-03-23T10:41:11;6.93;;;2.33;;
28431;SDS011;15664;51.302;7.744;2023-03-23T10:43:38;4.90;;;1.70;;
28431;SDS011;15664;51.302;7.744;2023-03-23T10:46:21;4.50;;;1.80;;
28431;SDS011;15664;51.302;7.744;2023-03-23T10:48:52;5.72;;;1.80;;
28431;SDS011;15664;51.302;7.744;2023-03-23T10:51:22;5.73;;;1.60;;
28431;SDS011;15664;51.302;7.744;2023-03-23T10:53:58;7.28;;;1.85;;
28431;SDS011;15664;51.302;7.744;2023-03-23T10:59:19;4.18;;;1.60;;
28431;SDS011;15664;51.302;7.744;2023-03-23T11:01:52;5.63;;;1.88;;
28431;SDS011;15664;51.302;7.744;2023-03-23T11:04:20;4.33;;;1.53;;
28431;SDS011;15664;51.302;7.744;2023-03-23T11:06:49;4.50;;;1.80;;
28431;SDS011;15664;51.302;7.744;2023-03-23T11:09:18;5.13;;;1.80;;
28431;SDS011;15664;51.302;7.744;2023-03-23T11:11:52;2.85;;;1.13;;
28431;SDS011;15664;51.302;7.744;2023-03-23T11:16:58;5.17;;;1.50;;
28431;SDS011;15664;51.302;7.744;2023-03-23T11:24:52;4.15;;;1.60;;
28431;SDS011;15664;51.302;7.744;2023-03-23T11:27:20;5.32;;;1.60;;
28431;SDS011;15664;51.302;7.744;2023-03-23T11:29:53;6.03;;;1.90;;
28431;SDS011;15664;51.302;7.744;2023-03-23T11:32:22;4.18;;;1.58;;
28431;SDS011;15664;51.302;7.744;2023-03-23T11:34:54;3.10;;;1.52;;
28431;SDS011;15664;51.302;7.744;2023-03-23T11:37:32;5.45;;;1.90;;
28431;SDS011;15664;51.302;7.744;2023-03-23T11:40:03;3.70;;;1.58;;
28431;SDS011;15664;51.302;7.744;2023-03-23T11:42:47;7.33;;;2.17;;
28431;SDS011;15664;51.302;7.744;2023-03-23T11:45:36;5.50;;;2.00;;
28431;SDS011;15664;51.302;7.744;2023-03-23T11:53:45;6.82;;;2.10;;
28431;SDS011;15664;51.302;7.744;2023-03-23T11:56:35;5.37;;;2.20;;
28431;SDS011;15664;51.302;7.744;2023-03-23T11:59:05;6.47;;;2.10;;
28431;SDS011;15664;51.302;7.744;2023-03-23T12:04:17;4.55;;;2.17;;
28431;SDS011;15664;51.302;7.744;2023-03-23T12:09:50;11.13;;;2.70;;
28431;SDS011;15664;51.302;7.744;2023-03-23T12:12:32;10.15;;;2.70;;
28431;SDS011;15664;51.302;7.744;2023-03-23T12:23:24;4.60;;;1.90;;
28431;SDS011;15664;51.302;7.744;2023-03-23T12:28:33;5.75;;;2.10;;
28431;SDS011;15664;51.302;7.744;2023-03-23T12:48:45;5.93;;;2.60;;
28431;SDS011;15664;51.302;7.744;2023-03-23T12:58:53;5.53;;;2.28;;
28431;SDS011;15664;51.302;7.744;2023-03-23T13:01:34;3.40;;;1.80;;
28431;SDS011;15664;51.302;7.744;2023-03-23T13:04:18;5.57;;;2.43;;
28431;SDS011;15664;51.302;7.744;2023-03-23T13:06:49;6.93;;;1.90;;
28431;SDS011;15664;51.302;7.744;2023-03-23T13:09:27;6.78;;;2.70;;
28431;SDS011;15664;51.302;7.744;2023-03-23T13:11:58;7.72;;;2.80;;
28431;SDS011;15664;51.302;7.744;2023-03-23T13:17:26;7.00;;;2.70;;
28431;SDS011;15664;51.302;7.744;2023-03-23T13:20:11;6.30;;;2.47;;
28431;SDS011;15664;51.302;7.744;2023-03-23T13:25:47;5.18;;;2.10;;
28431;SDS011;15664;51.302;7.744;2023-03-23T13:28:20;6.87;;;2.50;;
28431;SDS011;15664;51.302;7.744;2023-03-23T13:30:55;5.60;;;2.38;;
28431;SDS011;15664;51.302;7.744;2023-03-23T13:33:30;5.68;;;2.65;;
28431;SDS011;15664;51.302;7.744;2023-03-23T13:36:02;6.80;;;2.60;;
28431;SDS011;15664;51.302;7.744;2023-03-23T13:38:43;5.95;;;2.40;;
28431;SDS011;15664;51.302;7.744;2023-03-23T13:41:12;5.00;;;2.40;;
28431;SDS011;15664;51.302;7.744;2023-03-23T13:43:41;7.20;;;2.70;;
28431;SDS011;15664;51.302;7.744;2023-03-23T13:46:11;5.30;;;2.47;;
28431;SDS011;15664;51.302;7.744;2023-03-23T13:48:50;9.40;;;3.10;;
28431;SDS011;15664;51.302;7.744;2023-03-23T13:51:34;6.75;;;3.15;;
28431;SDS011;15664;51.302;7.744;2023-03-23T13:56:55;7.40;;;3.30;;
28431;SDS011;15664;51.302;7.744;2023-03-23T14:01:52;6.97;;;2.83;;
28431;SDS011;15664;51.302;7.744;2023-03-23T14:04:21;6.65;;;2.95;;
28431;SDS011;15664;51.302;7.744;2023-03-23T14:06:51;5.80;;;2.95;;
28431;SDS011;15664;51.302;7.744;2023-03-23T14:09:27;8.57;;;4.00;;
28431;SDS011;15664;51.302;7.744;2023-03-23T14:17:14;5.93;;;2.70;;
28431;SDS011;15664;51.302;7.744;2023-03-23T14:19:42;7.50;;;2.45;;
28431;SDS011;15664;51.302;7.744;2023-03-23T14:22:17;7.95;;;3.80;;
28431;SDS011;15664;51.302;7.744;2023-03-23T14:25:10;8.10;;;3.70;;
28431;SDS011;15664;51.302;7.744;2023-03-23T14:27:38;6.70;;;2.60;;
28431;SDS011;15664;51.302;7.744;2023-03-23T14:30:14;5.03;;;2.10;;
28431;SDS011;15664;51.302;7.744;2023-03-23T14:32:42;4.90;;;2.70;;
28431;SDS011;15664;51.302;7.744;2023-03-23T14:35:45;6.70;;;2.75;;
28431;SDS011;15664;51.302;7.744;2023-03-23T14:38:07;7.03;;;2.30;;
28431;SDS011;15664;51.302;7.744;2023-03-23T14:40:40;5.77;;;2.10;;
28431;SDS011;15664;51.302;7.744;2023-03-23T14:43:08;5.22;;;2.15;;
28431;SDS011;15664;51.302;7.744;2023-03-23T14:45:36;5.43;;;2.40;;
28431;SDS011;15664;51.302;7.744;2023-03-23T14:48:03;5.03;;;2.22;;
28431;SDS011;15664;51.302;7.744;2023-03-23T14:53:22;5.65;;;2.20;;
28431;SDS011;15664;51.302;7.744;2023-03-23T14:55:54;6.28;;;2.53;;
28431;SDS011;15664;51.302;7.744;2023-03-23T14:58:23;5.13;;;2.10;;
28431;SDS011;15664;51.302;7.744;2023-03-23T15:03:15;7.00;;;2.95;;
28431;SDS011;15664;51.302;7.744;2023-03-23T15:05:43;6.90;;;3.00;;
28431;SDS011;15664;51.302;7.744;2023-03-23T15:08:24;5.90;;;2.25;;
28431;SDS011;15664;51.302;7.744;2023-03-23T15:11:02;8.52;;;3.78;;
28431;SDS011;15664;51.302;7.744;2023-03-23T15:13:34;6.93;;;2.75;;
28431;SDS011;15664;51.302;7.744;2023-03-23T15:16:02;4.75;;;2.53;;
28431;SDS011;15664;51.302;7.744;2023-03-23T15:18:30;6.47;;;3.00;;
28431;SDS011;15664;51.302;7.744;2023-03-23T15:21:07;8.57;;;3.50;;
28431;SDS011;15664;51.302;7.744;2023-03-23T15:23:34;7.30;;;3.85;;
28431;SDS011;15664;51.302;7.744;2023-03-23T15:26:05;8.27;;;3.10;;
28431;SDS011;15664;51.302;7.744;2023-03-23T15:28:32;6.53;;;3.00;;
28431;SDS011;15664;51.302;7.744;2023-03-23T15:31:05;6.60;;;3.30;;
28431;SDS011;15664;51.302;7.744;2023-03-23T15:33:37;6.43;;;2.67;;
28431;SDS011;15664;51.302;7.744;2023-03-23T15:36:06;5.85;;;2.70;;
28431;SDS011;15664;51.302;7.744;2023-03-23T15:38:42;6.32;;;2.80;;
28431;SDS011;15664;51.302;7.744;2023-03-23T15:41:20;6.45;;;3.10;;
28431;SDS011;15664;51.302;7.744;2023-03-23T15:43:49;6.83;;;2.67;;
28431;SDS011;15664;51.302;7.744;2023-03-23T15:51:24;6.43;;;2.65;;
28431;SDS011;15664;51.302;7.744;2023-03-23T15:53:53;5.72;;;2.47;;
28431;SDS011;15664;51.302;7.744;2023-03-23T15:56:20;6.43;;;2.80;;
28431;SDS011;15664;51.302;7.744;2023-03-23T15:58:46;7.50;;;2.83;;
28431;SDS011;15664;51.302;7.744;2023-03-23T16:01:20;6.97;;;2.70;;
28431;SDS011;15664;51.302;7.744;2023-03-23T16:03:51;7.97;;;3.10;;
28431;SDS011;15664;51.302;7.744;2023-03-23T16:06:25;8.15;;;3.83;;
28431;SDS011;15664;51.302;7.744;2023-03-23T16:08:53;11.27;;;3.97;;
28431;SDS011;15664;51.302;7.744;2023-03-23T16:11:19;9.63;;;4.23;;
28431;SDS011;15664;51.302;7.744;2023-03-23T16:13:44;9.85;;;3.20;;
28431;SDS011;15664;51.302;7.744;2023-03-23T16:16:14;8.10;;;3.60;;
28431;SDS011;15664;51.302;7.744;2023-03-23T16:18:40;8.32;;;3.55;;
28431;SDS011;15664;51.302;7.744;2023-03-23T16:21:06;7.68;;;3.10;;
28431;SDS011;15664;51.302;7.744;2023-03-23T16:23:31;7.22;;;2.97;;
28431;SDS011;15664;51.302;7.744;2023-03-23T16:25:57;6.43;;;2.77;;
28431;SDS011;15664;51.302;7.744;2023-03-23T16:28:22;9.30;;;2.87;;
28431;SDS011;15664;51.302;7.744;2023-03-23T16:30:48;6.20;;;2.90;;
28431;SDS011;15664;51.302;7.744;2023-03-23T16:33:13;7.10;;;2.78;;
28431;SDS011;15664;51.302;7.744;2023-03-23T16:35:39;6.90;;;2.00;;
28431;SDS011;15664;51.302;7.744;2023-03-23T16:38:04;6.70;;;2.13;;
28431;SDS011;15664;51.302;7.744;2023-03-23T16:40:30;11.43;;;2.72;;
28431;SDS011;15664;51.302;7.744;2023-03-23T16:42:56;6.80;;;2.00;;
28431;SDS011;15664;51.302;7.744;2023-03-23T16:45:21;5.50;;;2.00;;
28431;SDS011;15664;51.302;7.744;2023-03-23T16:47:48;6.45;;;2.40;;
28431;SDS011;15664;51.302;7.744;2023-03-23T16:50:14;7.47;;;2.30;;
28431;SDS011;15664;51.302;7.744;2023-03-23T16:52:42;4.18;;;1.85;;
28431;SDS011;15664;51.302;7.744;2023-03-23T16:55:10;7.13;;;2.40;;
28431;SDS011;15664;51.302;7.744;2023-03-23T16:57:37;5.87;;;2.00;;
28431;SDS011;15664;51.302;7.744;2023-03-23T17:00:04;7.63;;;2.85;;
28431;SDS011;15664;51.302;7.744;2023-03-23T17:02:35;7.25;;;2.72;;
28431;SDS011;15664;51.302;7.744;2023-03-23T17:05:01;8.13;;;2.85;;
28431;SDS011;15664;51.302;7.744;2023-03-23T17:07:26;6.63;;;3.07;;
28431;SDS011;15664;51.302;7.744;2023-03-23T17:09:52;6.70;;;2.50;;
28431;SDS011;15664;51.302;7.744;2023-03-23T17:12:18;4.90;;;2.20;;
28431;SDS011;15664;51.302;7.744;2023-03-23T17:14:43;5.93;;;2.47;;
28431;SDS011;15664;51.302;7.744;2023-03-23T17:17:09;7.45;;;2.40;;
28431;SDS011;15664;51.302;7.744;2023-03-23T17:19:34;5.90;;;2.30;;
28431;SDS011;15664;51.302;7.744;2023-03-23T17:22:00;7.70;;;2.10;;
28431;SDS011;15664;51.302;7.744;2023-03-23T17:24:26;4.70;;;2.37;;